KSDA

Shenandoah Municipal Airport

Shenandoah, Iowa, USA
METAR KSDA 191115Z AUTO 08004KT 10SM CLR 20/20 A2989 RMK AO2
Observed Flight Rules
Sep-19 @ 11:15 UTC (16 minutes ago) Visual Flight Rules
Wind Visibility Clouds
80° at 4 knots 10 miles
  • Clear skies
Temperatures Readings
Current 20°C / 68°F
Dewpoint 20°C / 68°F
Humidity 100%
Altimeter 29.89" Hg
Pressure 1012 hPa
Elevation 296
METAR KSDA 191115Z AUTO 08004KT 10SM CLR 20/20 A2989 RMK AO2
Observed Flight Rules
Sep-19 @ 11:15 UTC
(16 minutes ago)
VFR
Wind Visibility
80° at 4 knots 10 miles
Clouds
  • Clear skies
Temperature Dewpoint
20°C / 68°F 20°C / 68°F
Humidity Altimeter Pressure
100% 29.89" Hg 1012 hPa